createdAt,value
2022-12-03T00:00:13.497Z,66.85
2022-12-03T00:01:19.796Z,68.22
2022-12-03T00:02:21.977Z,72.18
2022-12-03T00:03:27.051Z,60.80
2022-12-03T00:04:29.342Z,66.05
2022-12-03T00:05:34.399Z,72.55
2022-12-03T00:06:36.465Z,73.15
2022-12-03T00:07:42.752Z,70.70
2022-12-03T00:08:44.791Z,71.05
2022-12-03T00:09:49.470Z,67.45
2022-12-03T00:10:51.713Z,62.47
2022-12-03T00:11:56.484Z,75.40
2022-12-03T00:13:01.222Z,71.22
2022-12-03T00:14:07.461Z,72.55
2022-12-03T00:15:11.178Z,71.63
2022-12-03T00:16:17.705Z,72.72
2022-12-03T00:17:19.860Z,66.72
2022-12-03T00:18:24.559Z,68.65
2022-12-03T00:19:26.583Z,69.70
2022-12-03T00:20:31.164Z,78.50
2022-12-03T00:21:33.244Z,70.88
2022-12-03T00:22:37.915Z,66.13
2022-12-03T00:23:42.330Z,78.60
2022-12-03T00:24:47.212Z,71.18
2022-12-03T00:25:51.828Z,86.32
2022-12-03T00:26:53.897Z,67.90
2022-12-03T00:27:58.465Z,71.10
2022-12-03T00:29:03.487Z,72.22
2022-12-03T00:30:11.388Z,69.70
2022-12-03T00:31:13.411Z,67.47
2022-12-03T00:32:18.055Z,77.05
2022-12-03T00:33:20.451Z,63.33
2022-12-03T00:34:25.158Z,69.78
2022-12-03T00:35:27.151Z,72.30
2022-12-03T00:36:31.769Z,66.93
2022-12-03T00:37:35.274Z,68.25
2022-12-03T00:38:40.000Z,64.05
2022-12-03T00:39:42.195Z,67.72
2022-12-03T00:40:46.963Z,66.18
2022-12-03T00:41:48.985Z,73.97
2022-12-03T00:42:53.642Z,73.22
2022-12-03T09:03:21.627Z,74.73
2022-12-03T09:04:27.705Z,89.10
2022-12-03T09:05:35.276Z,100.30
2022-12-03T09:06:37.365Z,91.93
2022-12-03T09:07:42.084Z,85.25
2022-12-03T09:08:44.664Z,91.30
2022-12-03T09:09:49.389Z,108.13
2022-12-03T09:10:51.638Z,113.13
2022-12-03T09:11:59.510Z,101.15
2022-12-03T09:13:01.658Z,97.25
2022-12-03T09:14:06.889Z,101.38
2022-12-03T09:15:13.048Z,101.57
2022-12-03T09:16:15.253Z,122.72
2022-12-03T09:17:20.119Z,108.45
2022-12-03T09:18:25.006Z,116.20
2022-12-03T09:19:31.356Z,120.45
2022-12-03T09:20:33.540Z,107.90
2022-12-03T09:21:38.427Z,99.38
2022-12-03T09:22:43.329Z,105.78
2022-12-03T09:23:45.402Z,114.63
2022-12-03T09:24:50.150Z,100.35
2022-12-03T09:25:52.375Z,108.68
2022-12-03T09:26:57.280Z,106.22
2022-12-03T09:27:59.583Z,112.60
2022-12-03T09:29:08.918Z,98.93
2022-12-03T09:30:14.530Z,88.20
2022-12-03T09:31:19.924Z,81.97
2022-12-03T09:32:22.251Z,91.88
2022-12-03T09:33:31.261Z,97.68
2022-12-03T09:34:35.996Z,85.32
2022-12-03T09:35:38.159Z,84.15
2022-12-03T09:36:43.584Z,97.50
2022-12-03T09:37:45.705Z,91.07
2022-12-03T09:38:50.432Z,98.78
2022-12-03T09:39:55.444Z,103.57
2022-12-03T09:40:57.539Z,93.18
2022-12-03T09:42:04.870Z,96.95
2022-12-03T09:43:07.112Z,80.50
2022-12-03T09:44:17.686Z,69.47
2022-12-03T09:45:20.553Z,97.85
2022-12-03T09:46:25.785Z,89.50
2022-12-03T09:47:32.678Z,90.18
2022-12-03T09:48:37.770Z,95.78
2022-12-03T09:49:43.553Z,79.40
2022-12-03T09:50:48.978Z,88.47
2022-12-03T09:51:54.056Z,105.18
2022-12-03T09:53:04.980Z,93.00
2022-12-03T09:54:10.085Z,92.63
2022-12-03T09:55:17.000Z,97.10
2022-12-03T09:56:24.864Z,93.05
2022-12-03T09:57:29.506Z,99.22
2022-12-03T09:58:35.016Z,80.57
2022-12-03T10:00:51.468Z,74.78
2022-12-03T10:01:57.146Z,83.40
2022-12-03T10:05:56.607Z,341.42
2022-12-03T10:09:04.624Z,148.35
2022-12-03T10:09:08.319Z,134.80
2022-12-03T10:10:18.396Z,126.32
2022-12-03T10:11:29.576Z,144.10
2022-12-03T10:12:45.035Z,104.15
2022-12-03T10:13:58.230Z,138.82
2022-12-03T10:24:45.205Z,116.07
2022-12-03T10:25:53.027Z,92.95
2022-12-03T10:27:02.346Z,102.75
2022-12-03T10:28:05.462Z,107.63
2022-12-03T10:29:16.026Z,106.57
2022-12-03T10:30:23.717Z,97.15
2022-12-03T10:31:38.771Z,78.38
2022-12-03T10:32:48.820Z,111.13
2022-12-03T10:34:04.143Z,113.43
2022-12-03T10:35:12.401Z,102.05
2022-12-03T10:36:23.435Z,108.78
2022-12-03T10:37:28.285Z,90.43
2022-12-03T10:38:30.457Z,101.20
2022-12-03T10:39:56.658Z,94.63
2022-12-03T10:41:03.140Z,101.75
2022-12-03T10:42:18.370Z,99.93
2022-12-03T10:43:29.456Z,105.82
2022-12-03T10:44:31.837Z,90.25
2022-12-03T10:45:36.721Z,98.07
2022-12-03T10:46:41.808Z,88.95
2022-12-03T10:48:06.521Z,135.02
2022-12-03T10:49:13.143Z,113.22
2022-12-03T10:50:18.108Z,102.47
2022-12-03T10:51:23.844Z,94.28
2022-12-03T10:52:26.331Z,73.45
2022-12-03T10:53:33.084Z,77.13
2022-12-03T10:54:38.717Z,97.88
2022-12-03T10:55:43.530Z,91.82
2022-12-03T10:56:49.784Z,93.68
2022-12-03T10:57:52.548Z,97.95
2022-12-03T10:58:58.211Z,93.55
2022-12-03T11:00:00.491Z,83.18
2022-12-03T11:01:13.531Z,86.15
2022-12-03T11:02:22.834Z,70.65
2022-12-03T11:03:32.444Z,76.55
2022-12-03T11:04:36.914Z,80.20
2022-12-03T11:05:41.786Z,81.10
2022-12-03T11:06:46.720Z,81.22
2022-12-03T11:07:49.200Z,88.35
2022-12-03T11:09:01.388Z,80.72
2022-12-03T11:10:15.310Z,83.80
2022-12-03T11:11:21.892Z,84.70
2022-12-03T11:12:28.741Z,83.20
2022-12-03T11:13:50.298Z,74.13
2022-12-03T11:15:12.170Z,102.32
2022-12-03T11:17:51.693Z,75.60
2022-12-03T11:19:03.544Z,91.15
2022-12-03T11:20:18.084Z,89.63
2022-12-03T11:21:26.051Z,82.45
2022-12-03T11:22:48.583Z,70.93
2022-12-03T11:24:18.678Z,89.45
2022-12-03T11:25:58.467Z,75.38
2022-12-03T11:27:28.883Z,95.70
2022-12-03T11:28:53.355Z,88.03
2022-12-03T11:30:02.642Z,97.93
2022-12-03T11:31:11.913Z,100.45
2022-12-03T11:33:09.252Z,75.68
2022-12-03T11:34:52.830Z,73.97
2022-12-03T11:36:16.925Z,81.50
2022-12-03T11:37:23.760Z,75.55
2022-12-03T11:38:54.022Z,81.03
2022-12-03T11:40:33.507Z,94.95
2022-12-03T11:41:41.099Z,80.75
2022-12-03T11:42:44.141Z,77.82
2022-12-03T11:44:29.650Z,81.82
2022-12-03T11:45:38.140Z,93.40
2022-12-03T11:46:43.926Z,95.93
2022-12-03T11:47:51.083Z,75.32
2022-12-03T11:48:55.292Z,88.47
2022-12-03T11:50:00.393Z,89.93
2022-12-03T11:51:05.341Z,69.68
2022-12-03T11:52:33.762Z,80.63
2022-12-03T11:53:38.912Z,88.50
2022-12-03T11:54:41.158Z,85.03
2022-12-03T11:55:49.048Z,83.25
2022-12-03T11:56:52.219Z,110.45
2022-12-03T11:58:01.383Z,100.07
2022-12-03T11:59:15.087Z,95.95
2022-12-03T12:00:24.469Z,66.28
2022-12-03T12:01:38.250Z,76.97
2022-12-03T12:02:43.945Z,75.97
2022-12-03T12:03:51.207Z,88.20
2022-12-03T12:04:53.755Z,94.70
2022-12-03T12:06:06.998Z,80.03
2022-12-03T12:07:09.208Z,69.07
2022-12-03T12:08:22.418Z,80.05
2022-12-03T12:09:49.688Z,80.20
2022-12-03T12:10:54.677Z,79.97
2022-12-03T12:12:19.822Z,93.85
2022-12-03T12:13:55.735Z,76.13
2022-12-03T12:14:59.194Z,75.55
2022-12-03T12:16:05.345Z,84.95
2022-12-03T12:17:37.246Z,77.05
2022-12-03T12:18:44.095Z,83.70
2022-12-03T12:19:54.384Z,84.10
2022-12-03T12:21:16.972Z,82.25
2022-12-03T12:22:32.162Z,80.22
2022-12-03T12:23:37.071Z,73.20
2022-12-03T12:24:51.702Z,78.97
2022-12-03T12:25:56.946Z,81.72
2022-12-03T12:27:01.233Z,92.60
2022-12-03T12:28:06.318Z,69.90
2022-12-03T12:29:08.632Z,69.55
2022-12-03T12:30:18.179Z,68.47
2022-12-03T12:31:20.637Z,55.85
2022-12-03T12:32:31.921Z,64.93
2022-12-03T12:33:36.855Z,81.15
2022-12-03T12:34:40.341Z,84.28
2022-12-03T12:35:48.127Z,71.18
2022-12-03T12:36:57.189Z,81.32
2022-12-03T12:38:13.746Z,69.88
2022-12-03T12:39:19.077Z,80.10
2022-12-03T12:40:27.067Z,67.68
2022-12-03T12:41:29.312Z,68.72
2022-12-03T12:42:36.957Z,66.50
2022-12-03T12:43:42.447Z,77.40
2022-12-03T12:44:45.070Z,82.63
2022-12-03T12:45:50.162Z,67.13
2022-12-03T12:46:54.116Z,71.70
2022-12-03T12:48:08.410Z,80.85
2022-12-03T12:49:14.519Z,76.38
2022-12-03T12:50:19.151Z,73.60
2022-12-03T12:51:24.130Z,52.08
2022-12-03T12:52:27.727Z,58.53
2022-12-03T12:53:35.666Z,67.38
2022-12-03T12:54:41.002Z,77.20
2022-12-03T12:55:45.887Z,80.25
2022-12-03T12:56:53.067Z,88.00
2022-12-03T12:58:11.491Z,74.93
2022-12-03T12:59:19.375Z,67.55
2022-12-03T13:00:24.009Z,66.05
2022-12-03T13:01:31.528Z,58.35
2022-12-03T13:02:44.504Z,70.55
2022-12-03T13:03:53.008Z,67.13
2022-12-03T13:04:55.217Z,83.30
2022-12-03T13:06:00.604Z,77.82
2022-12-03T13:07:02.858Z,85.63
2022-12-03T13:08:21.773Z,63.13
2022-12-03T13:09:28.467Z,73.97
2022-12-03T13:10:44.242Z,64.88
2022-12-03T13:11:54.757Z,88.10
2022-12-03T13:12:59.832Z,82.03
2022-12-03T13:14:08.566Z,74.65
2022-12-03T13:15:34.926Z,72.00
2022-12-03T13:16:39.905Z,74.95
2022-12-03T13:17:42.264Z,83.10
2022-12-03T13:18:50.017Z,75.97
2022-12-03T13:20:01.972Z,83.15
2022-12-03T13:21:27.478Z,70.05
2022-12-03T13:22:30.125Z,59.63
2022-12-03T13:23:37.309Z,66.05
2022-12-03T13:24:44.120Z,68.57
2022-12-03T13:26:07.165Z,73.72
2022-12-03T13:27:29.686Z,72.88
2022-12-03T13:28:33.919Z,72.55
2022-12-03T13:29:38.914Z,56.72
2022-12-03T13:30:41.276Z,67.40
2022-12-03T13:31:55.586Z,80.35
2022-12-03T13:32:58.374Z,75.03
2022-12-03T13:34:05.125Z,64.32
2022-12-03T13:35:17.601Z,74.38
2022-12-03T13:36:24.549Z,70.30
2022-12-03T13:37:28.529Z,73.20
2022-12-03T13:38:33.310Z,71.07
2022-12-03T13:39:41.126Z,51.83
2022-12-03T13:40:46.239Z,72.45
2022-12-03T13:42:18.120Z,75.15
2022-12-03T13:43:23.051Z,64.72
2022-12-03T13:44:27.520Z,66.25
2022-12-03T13:45:39.936Z,55.15
2022-12-03T13:46:42.563Z,61.58
2022-12-03T13:47:49.517Z,63.88
2022-12-03T13:48:57.452Z,75.65
2022-12-03T13:50:13.931Z,84.85
2022-12-03T13:51:24.355Z,119.45
2022-12-03T13:52:29.696Z,113.70
2022-12-03T13:53:36.959Z,84.40
2022-12-03T13:54:42.990Z,64.97
2022-12-03T13:55:48.453Z,85.10
2022-12-03T13:57:00.409Z,68.65
2022-12-03T13:58:06.681Z,67.40
2022-12-03T13:59:16.020Z,56.40
2022-12-03T14:00:20.536Z,69.63
2022-12-03T14:01:29.550Z,72.95
2022-12-03T14:02:52.579Z,71.03
2022-12-03T14:04:02.430Z,76.55
2022-12-03T14:05:11.195Z,74.50
2022-12-03T14:06:17.415Z,72.90
2022-12-03T14:07:22.273Z,62.03
2022-12-03T14:08:27.062Z,63.80
2022-12-03T14:09:29.179Z,66.28
2022-12-03T14:10:33.914Z,68.50
2022-12-03T14:11:51.369Z,68.72
2022-12-03T14:12:59.128Z,81.72
2022-12-03T14:14:04.178Z,57.17
2022-12-03T14:15:10.924Z,67.60
2022-12-03T14:16:13.178Z,61.17
2022-12-03T14:17:18.040Z,51.90
2022-12-03T14:18:22.755Z,67.97
2022-12-03T14:19:24.933Z,56.40
2022-12-03T14:20:29.737Z,56.92
2022-12-03T14:21:31.939Z,63.97
2022-12-03T14:22:38.154Z,70.82
2022-12-03T14:23:40.355Z,64.65
2022-12-03T14:24:45.205Z,78.03
2022-12-03T14:25:47.353Z,68.30
2022-12-03T14:26:52.124Z,79.05
2022-12-03T14:28:04.018Z,76.47
2022-12-03T14:29:09.156Z,67.60
2022-12-03T14:30:15.234Z,80.20
2022-12-03T14:31:17.397Z,69.70
2022-12-03T14:32:22.351Z,58.78
2022-12-03T14:33:27.191Z,81.28
2022-12-03T14:34:29.360Z,66.63
2022-12-03T14:35:34.180Z,71.32
2022-12-03T14:36:39.006Z,70.90
2022-12-03T14:37:41.178Z,69.93
2022-12-03T14:38:45.953Z,79.70
2022-12-03T14:39:50.695Z,86.60
2022-12-03T14:40:52.879Z,81.60
2022-12-03T14:42:10.293Z,76.40
2022-12-03T14:43:17.763Z,76.25
2022-12-03T14:44:22.027Z,61.22
2022-12-03T14:45:28.756Z,68.82
2022-12-03T14:46:31.509Z,65.45
2022-12-03T14:47:36.342Z,88.65
2022-12-03T14:48:38.537Z,65.25
2022-12-03T14:49:43.419Z,74.80
2022-12-03T14:50:45.711Z,74.65
2022-12-03T14:51:50.552Z,75.88
2022-12-03T14:52:55.315Z,81.53
2022-12-03T14:53:57.431Z,90.60
2022-12-03T14:55:02.464Z,76.90
2022-12-03T14:56:04.837Z,65.32
2022-12-03T14:57:09.593Z,66.60
2022-12-03T14:58:17.048Z,72.97
2022-12-03T14:59:24.371Z,78.47
2022-12-03T15:00:32.082Z,107.72
2022-12-03T15:01:34.338Z,70.93
2022-12-03T15:02:39.271Z,65.95
2022-12-03T15:03:41.546Z,88.65
2022-12-03T15:04:46.401Z,70.72
2022-12-03T15:05:49.237Z,72.68
2022-12-03T15:06:54.139Z,84.68
2022-12-03T15:07:59.140Z,74.65
2022-12-03T15:09:01.553Z,68.55
2022-12-03T15:10:07.093Z,65.18
2022-12-03T15:11:09.793Z,51.67
2022-12-03T15:12:14.678Z,72.15
2022-12-03T15:13:19.457Z,72.55
2022-12-03T15:14:24.272Z,78.65
2022-12-03T15:15:26.611Z,74.18
2022-12-03T15:16:31.443Z,67.88
2022-12-03T15:17:33.805Z,74.55
2022-12-03T15:18:38.636Z,91.50
2022-12-03T15:19:43.427Z,84.30
2022-12-03T15:20:49.300Z,84.65
2022-12-03T15:21:54.006Z,92.38
2022-12-03T15:22:58.776Z,93.60
2022-12-03T15:24:01.079Z,87.22
2022-12-03T15:25:07.825Z,99.80
2022-12-03T15:26:09.986Z,71.68
2022-12-03T15:27:14.755Z,77.32
2022-12-03T15:28:19.496Z,113.13
2022-12-03T15:29:27.032Z,61.97
2022-12-03T15:30:29.325Z,61.08
2022-12-03T15:31:34.404Z,94.47
2022-12-03T15:32:39.320Z,69.18
2022-12-03T15:33:44.264Z,72.47
2022-12-03T15:34:51.449Z,64.20
2022-12-03T15:35:56.258Z,88.53
2022-12-03T15:37:03.130Z,75.53
2022-12-03T15:38:05.316Z,77.32
2022-12-03T15:39:10.075Z,65.03
2022-12-03T15:40:13.402Z,61.70
2022-12-03T15:41:24.943Z,63.63
2022-12-03T15:42:28.237Z,70.30
2022-12-03T15:43:35.654Z,67.55
2022-12-03T15:44:40.987Z,82.70
2022-12-03T15:45:43.249Z,75.07
2022-12-03T15:46:48.135Z,77.65
2022-12-03T15:47:52.899Z,82.78
2022-12-03T15:48:58.461Z,78.85
2022-12-03T15:50:00.862Z,73.85
2022-12-03T15:51:05.724Z,66.82
2022-12-03T15:52:10.725Z,75.25
2022-12-03T15:53:15.564Z,71.28
2022-12-03T15:54:17.691Z,69.43
2022-12-03T15:55:22.634Z,79.93
2022-12-03T15:56:27.502Z,75.00
2022-12-03T15:57:31.319Z,89.85
2022-12-03T15:58:38.718Z,76.70
2022-12-03T15:59:45.844Z,83.65
2022-12-03T16:00:50.623Z,95.45
2022-12-03T16:01:55.477Z,99.28
2022-12-03T16:03:00.262Z,130.82
2022-12-03T16:04:02.563Z,76.38
2022-12-03T16:05:10.170Z,69.95
2022-12-03T16:06:15.887Z,64.72
2022-12-03T16:07:18.018Z,75.40
2022-12-03T16:08:22.852Z,76.93
2022-12-03T16:09:28.108Z,78.18
2022-12-03T16:10:33.056Z,77.95
2022-12-03T16:11:37.857Z,76.25
2022-12-03T16:12:40.515Z,76.40
2022-12-03T16:13:48.051Z,76.20
2022-12-03T16:14:50.287Z,97.70
2022-12-03T16:15:55.159Z,82.05
2022-12-03T16:16:59.149Z,103.70
2022-12-03T16:18:06.579Z,88.53
2022-12-03T16:19:11.369Z,77.53
2022-12-03T16:20:16.207Z,79.13
2022-12-03T16:21:23.374Z,70.57
2022-12-03T16:22:31.153Z,85.65
2022-12-03T16:23:33.317Z,87.85
2022-12-03T16:24:38.031Z,91.05
2022-12-03T16:25:43.106Z,100.80
2022-12-03T16:26:45.306Z,105.47
2022-12-03T16:27:50.135Z,112.28
2022-12-03T16:28:59.429Z,113.85
2022-12-03T16:30:04.259Z,108.05
2022-12-03T16:31:06.622Z,112.95
2022-12-03T16:32:11.491Z,103.72
2022-12-03T16:33:13.648Z,119.28
2022-12-03T16:34:18.441Z,108.30
2022-12-03T16:35:20.635Z,117.50
2022-12-03T16:36:25.388Z,103.25
2022-12-03T16:37:27.614Z,115.65
2022-12-03T16:38:33.955Z,107.70
2022-12-03T16:39:39.328Z,101.40
2022-12-03T16:40:44.077Z,107.47
2022-12-03T16:41:46.219Z,132.70
2022-12-03T16:42:50.980Z,140.45
2022-12-03T16:43:55.861Z,156.82
2022-12-03T16:45:13.059Z,141.50
2022-12-03T16:46:28.604Z,108.05
2022-12-03T16:47:34.559Z,113.70
2022-12-03T16:48:39.470Z,101.05
2022-12-03T16:49:41.960Z,99.25
2022-12-03T16:50:46.769Z,99.75
2022-12-03T16:51:51.745Z,118.65
2022-12-03T16:52:53.906Z,131.00
2022-12-03T16:53:58.716Z,135.55
2022-12-03T16:55:01.044Z,102.30
2022-12-03T16:56:06.031Z,116.55
2022-12-03T16:57:08.229Z,117.00
2022-12-03T16:58:13.097Z,121.13
2022-12-03T16:59:20.700Z,114.82
2022-12-03T17:00:26.421Z,97.75
2022-12-03T17:01:28.589Z,115.05
2022-12-03T17:02:33.501Z,125.15
2022-12-03T17:03:38.375Z,116.18
2022-12-03T17:04:40.770Z,119.68
2022-12-03T17:05:45.503Z,102.47
2022-12-03T17:06:50.356Z,129.52
2022-12-03T17:07:52.545Z,112.68
2022-12-03T17:08:57.402Z,121.50
2022-12-03T17:10:02.377Z,126.85
2022-12-03T17:11:07.321Z,127.15
2022-12-03T17:12:09.536Z,118.40
2022-12-03T17:13:15.020Z,108.95
2022-12-03T17:14:19.793Z,113.05
2022-12-03T17:15:24.540Z,118.38
2022-12-03T17:16:29.450Z,129.88
2022-12-03T17:17:34.373Z,124.65
2022-12-03T17:18:39.209Z,95.15
2022-12-03T17:19:44.047Z,99.68
2022-12-03T17:20:48.809Z,125.13
2022-12-03T17:21:51.006Z,122.70
2022-12-03T17:22:55.793Z,117.90
2022-12-03T17:24:00.567Z,131.88
2022-12-03T17:25:02.672Z,101.43
2022-12-03T17:26:07.788Z,108.95
2022-12-03T17:27:11.737Z,105.00
2022-12-03T17:28:19.374Z,110.32
2022-12-03T17:29:26.825Z,103.03
2022-12-03T17:30:29.064Z,112.28
2022-12-03T17:31:39.943Z,121.25
2022-12-03T17:32:47.056Z,131.55
2022-12-03T17:33:49.179Z,153.32
2022-12-03T17:34:53.966Z,152.00
2022-12-03T17:35:56.114Z,141.85
2022-12-03T17:37:00.819Z,159.48
2022-12-03T17:38:02.961Z,144.98
2022-12-03T17:39:07.754Z,123.75
2022-12-03T17:40:12.311Z,122.32
2022-12-03T17:41:17.416Z,122.82
2022-12-03T17:42:19.515Z,114.25
2022-12-03T17:43:24.284Z,131.57
2022-12-03T17:44:31.654Z,120.60
2022-12-03T17:45:33.825Z,125.22
2022-12-03T17:46:38.709Z,151.68
2022-12-03T17:47:43.938Z,126.43
2022-12-03T17:48:46.207Z,123.32
2022-12-03T17:49:54.100Z,142.23
2022-12-03T17:50:58.202Z,142.88
2022-12-03T17:52:03.398Z,138.48
2022-12-03T17:53:10.504Z,151.05
2022-12-03T17:54:15.254Z,131.65
2022-12-03T17:55:29.720Z,130.70
2022-12-03T17:56:39.426Z,127.75
2022-12-03T17:57:44.303Z,101.82
2022-12-03T17:58:46.537Z,110.82
2022-12-03T17:59:54.162Z,122.70
2022-12-03T18:01:02.085Z,123.32
2022-12-03T18:02:07.857Z,127.38
2022-12-03T18:03:12.892Z,116.43
2022-12-03T18:04:15.271Z,106.03
2022-12-03T18:05:20.230Z,118.22
2022-12-03T18:06:26.463Z,117.78
2022-12-03T18:07:28.649Z,107.10
2022-12-03T18:08:33.670Z,117.53
2022-12-03T18:09:35.840Z,114.05
2022-12-03T18:10:40.596Z,124.32
2022-12-03T18:11:45.618Z,132.82
2022-12-03T18:12:47.800Z,135.63
2022-12-03T18:13:52.679Z,114.30
2022-12-03T18:15:02.209Z,117.88
2022-12-03T18:16:07.755Z,111.60
2022-12-03T18:17:09.987Z,103.93
2022-12-03T18:18:15.079Z,110.32
2022-12-03T18:19:19.935Z,110.22
2022-12-03T18:20:22.257Z,112.47
2022-12-03T18:21:27.255Z,111.97
2022-12-03T18:22:32.167Z,108.65
2022-12-03T18:23:37.491Z,104.78
2022-12-03T18:24:40.091Z,116.72
2022-12-03T18:25:45.445Z,114.95
2022-12-03T18:26:50.412Z,119.18
2022-12-03T18:27:55.364Z,129.40
2022-12-03T18:29:00.425Z,127.28
2022-12-03T18:30:09.823Z,134.20
2022-12-03T18:31:17.689Z,126.00
2022-12-03T18:32:29.006Z,114.03
2022-12-03T18:33:34.450Z,123.68
2022-12-03T18:34:36.762Z,129.05
2022-12-03T18:35:41.835Z,112.95
2022-12-03T18:36:49.343Z,124.50
2022-12-03T18:37:54.839Z,122.55
2022-12-03T18:39:01.606Z,110.13
2022-12-03T18:40:12.692Z,123.00
2022-12-03T18:41:18.270Z,90.00
2022-12-03T18:42:25.816Z,112.22
2022-12-03T18:43:28.490Z,122.63
2022-12-03T18:44:34.068Z,120.10
2022-12-03T18:45:41.577Z,116.50
2022-12-03T18:46:55.164Z,117.40
2022-12-03T18:48:00.378Z,142.13
2022-12-03T18:49:05.359Z,126.28
2022-12-03T18:50:16.667Z,102.45
2022-12-03T18:51:23.570Z,98.07
2022-12-03T18:52:25.865Z,105.43
2022-12-03T18:53:30.672Z,106.38
2022-12-03T18:54:35.629Z,116.20
2022-12-03T18:55:37.848Z,111.90
2022-12-03T18:56:43.412Z,105.03
2022-12-03T18:57:45.966Z,85.25
2022-12-03T18:58:50.724Z,126.18
2022-12-03T18:59:53.387Z,137.13
2022-12-03T19:01:01.470Z,118.93
2022-12-03T19:02:06.583Z,154.00
2022-12-03T19:03:11.821Z,114.57
2022-12-03T19:04:14.158Z,134.32
2022-12-03T19:05:19.189Z,105.95
2022-12-03T19:06:22.129Z,131.88
2022-12-03T19:07:27.057Z,108.97
2022-12-03T19:08:33.879Z,134.55
2022-12-03T19:09:36.121Z,122.28
2022-12-03T19:10:40.919Z,126.43
2022-12-03T19:11:46.063Z,135.13
2022-12-03T19:12:51.151Z,158.88
2022-12-03T19:13:57.432Z,148.73
2022-12-03T19:14:59.691Z,140.90
2022-12-03T19:16:09.184Z,142.32
2022-12-03T19:17:14.075Z,130.77
2022-12-03T19:18:16.436Z,128.35
2022-12-03T19:19:21.215Z,115.82
2022-12-03T19:20:26.369Z,142.77
2022-12-03T19:21:33.861Z,128.82
2022-12-03T19:22:39.546Z,144.50
2022-12-03T19:24:09.875Z,133.15
2022-12-03T19:25:10.757Z,144.65
2022-12-03T19:26:18.179Z,118.43
2022-12-03T19:27:20.480Z,139.85
2022-12-03T19:28:25.409Z,116.60
2022-12-03T19:29:27.740Z,127.05
2022-12-03T19:30:32.629Z,132.07
2022-12-03T19:31:40.339Z,149.52
2022-12-03T19:32:46.123Z,131.70
2022-12-03T19:33:52.028Z,138.18
2022-12-03T19:34:54.466Z,159.38
2022-12-03T19:36:00.490Z,139.82
2022-12-03T19:37:05.361Z,134.45
2022-12-03T19:38:08.523Z,130.70
2022-12-03T19:39:17.143Z,106.38
2022-12-03T19:40:19.630Z,119.20
2022-12-03T19:41:26.871Z,133.93
2022-12-03T19:42:31.354Z,129.63
2022-12-03T19:43:37.272Z,140.63
2022-12-03T19:44:39.648Z,138.25
2022-12-03T19:45:44.703Z,141.35
2022-12-03T19:46:53.129Z,122.50
2022-12-03T19:47:55.423Z,147.85
2022-12-03T19:49:01.970Z,154.35
2022-12-03T19:50:08.665Z,162.48
2022-12-03T19:51:33.594Z,133.02
2022-12-03T19:52:39.482Z,120.03
2022-12-03T19:53:42.280Z,131.73
2022-12-03T19:54:47.434Z,145.73
2022-12-03T19:55:49.770Z,138.93
2022-12-03T19:56:54.711Z,143.73
2022-12-03T19:57:59.553Z,129.55
2022-12-03T19:59:05.199Z,125.85
2022-12-03T20:00:09.366Z,117.38
2022-12-03T20:01:17.100Z,128.43
2022-12-03T20:02:22.232Z,116.88
2022-12-03T20:03:27.129Z,126.32
2022-12-03T20:04:29.324Z,123.78
2022-12-03T20:05:38.610Z,120.82
2022-12-03T20:06:40.941Z,114.50
2022-12-03T20:07:45.778Z,123.78
2022-12-03T20:08:50.956Z,139.02
2022-12-03T20:09:56.115Z,128.40
2022-12-03T20:11:08.421Z,139.45
2022-12-03T20:12:13.292Z,117.60
2022-12-03T20:13:18.130Z,135.82
2022-12-03T20:14:21.099Z,125.10
2022-12-03T20:15:26.095Z,126.72
2022-12-03T20:16:34.039Z,139.02
2022-12-03T20:17:41.556Z,138.52
2022-12-03T20:18:45.755Z,135.95
2022-12-03T20:19:51.740Z,130.82
2022-12-03T20:20:57.167Z,134.80
2022-12-03T20:22:03.117Z,152.13
2022-12-03T20:23:05.557Z,130.98
2022-12-03T20:24:13.165Z,131.05
2022-12-03T20:25:18.111Z,125.35
2022-12-03T20:26:22.343Z,120.60
2022-12-03T20:27:27.338Z,120.53
2022-12-03T20:28:35.240Z,121.13
2022-12-03T20:29:40.354Z,111.70
2022-12-03T20:30:44.826Z,116.85
2022-12-03T20:31:50.428Z,138.00
2022-12-03T20:32:58.135Z,127.28
2022-12-03T20:34:05.253Z,148.82
2022-12-03T20:35:13.132Z,105.57
2022-12-03T20:36:17.455Z,118.82
2022-12-03T20:37:22.375Z,119.68
2022-12-03T20:38:28.118Z,114.05
2022-12-03T20:39:33.129Z,114.43
2022-12-03T20:40:36.407Z,126.32
2022-12-03T20:41:41.475Z,109.07
2022-12-03T20:42:50.342Z,123.10
2022-12-03T20:43:53.456Z,147.70
2022-12-03T20:44:58.610Z,135.32
2022-12-03T20:46:07.904Z,138.85
2022-12-03T20:47:13.017Z,109.53
2022-12-03T20:48:17.877Z,117.10
2022-12-03T20:49:23.216Z,100.18
2022-12-03T20:50:28.091Z,109.03
2022-12-03T20:51:31.297Z,98.05
2022-12-03T20:52:36.161Z,104.80
2022-12-03T20:53:41.437Z,92.70
2022-12-03T20:54:46.748Z,100.25
2022-12-03T20:55:55.655Z,98.20
2022-12-03T20:57:03.228Z,126.60
2022-12-03T20:58:05.576Z,128.57
2022-12-03T20:59:13.649Z,108.93
2022-12-03T21:00:16.760Z,107.97
2022-12-03T21:01:24.219Z,105.88
2022-12-03T21:02:26.876Z,107.25
2022-12-03T21:03:36.805Z,103.22
2022-12-03T21:04:41.989Z,131.00
2022-12-03T21:05:44.240Z,117.72
2022-12-03T21:06:51.984Z,145.95
2022-12-03T21:07:54.798Z,133.55
2022-12-03T21:09:01.293Z,117.70
2022-12-03T21:10:06.656Z,127.45
2022-12-03T21:11:10.379Z,109.30
2022-12-03T21:12:15.493Z,106.88
2022-12-03T21:13:18.471Z,98.45
2022-12-03T21:14:23.412Z,124.82
2022-12-03T21:15:25.840Z,120.32
2022-12-03T21:16:59.687Z,95.43
2022-12-03T21:18:00.162Z,123.43
2022-12-03T21:19:07.960Z,108.68
2022-12-03T21:20:10.872Z,91.97
2022-12-03T21:21:16.950Z,102.97
2022-12-03T21:22:21.923Z,98.88
2022-12-03T21:23:24.125Z,99.68
2022-12-03T21:24:30.070Z,103.90
2022-12-03T21:25:32.656Z,102.43
2022-12-03T21:26:37.564Z,88.18
2022-12-03T21:27:39.928Z,81.93
2022-12-03T21:28:47.357Z,91.65
2022-12-03T21:29:52.956Z,99.97
2022-12-03T21:30:59.643Z,123.63
2022-12-03T21:32:04.452Z,106.50
2022-12-03T21:33:07.373Z,131.68
2022-12-03T21:34:15.152Z,77.82
2022-12-03T21:35:18.586Z,106.00
2022-12-03T21:36:23.608Z,98.43
2022-12-03T21:37:25.959Z,98.85
2022-12-03T21:38:32.869Z,91.25
2022-12-03T21:39:37.938Z,95.35
2022-12-03T21:40:40.276Z,91.60
2022-12-03T21:42:33.354Z,85.90
2022-12-03T21:43:10.030Z,94.68
2022-12-03T21:44:14.805Z,96.38
2022-12-03T21:45:17.143Z,89.35
2022-12-03T21:47:10.255Z,97.45
2022-12-03T21:47:50.574Z,80.93
2022-12-03T21:48:55.489Z,87.05
2022-12-03T21:50:00.329Z,83.72
2022-12-03T21:51:07.032Z,116.60
2022-12-03T21:52:12.173Z,92.35
2022-12-03T21:53:14.400Z,87.95
2022-12-03T21:54:20.531Z,100.80
2022-12-03T21:55:25.380Z,93.75
2022-12-03T21:56:27.745Z,80.40
2022-12-03T21:57:32.588Z,89.72
2022-12-03T21:58:35.224Z,88.38
2022-12-03T21:59:40.066Z,90.40
2022-12-03T22:00:42.235Z,85.47
2022-12-03T22:01:47.571Z,93.72
2022-12-03T22:02:50.158Z,109.57
2022-12-03T22:03:55.357Z,100.53
2022-12-03T22:05:00.164Z,186.65
2022-12-03T22:06:05.242Z,119.30
2022-12-03T22:07:07.555Z,100.00
2022-12-03T22:08:13.914Z,103.18
2022-12-03T22:09:24.833Z,121.40
2022-12-03T22:10:28.735Z,86.28
2022-12-03T22:11:33.569Z,102.05
2022-12-03T22:12:40.882Z,77.85
2022-12-03T22:13:46.245Z,94.03
2022-12-03T22:14:48.604Z,101.38
2022-12-03T22:15:53.713Z,91.47
2022-12-03T22:16:56.315Z,105.32
2022-12-03T22:18:01.115Z,130.93
2022-12-03T22:19:06.417Z,219.13
2022-12-03T22:20:12.560Z,104.00
2022-12-03T22:21:20.431Z,97.68
2022-12-03T22:22:22.694Z,100.25
2022-12-03T22:23:27.509Z,97.85
2022-12-03T22:24:32.380Z,86.38
2022-12-03T22:25:34.541Z,90.15
2022-12-03T22:26:39.286Z,96.50
2022-12-03T22:27:44.055Z,84.65
2022-12-03T22:28:48.443Z,105.88
2022-12-03T22:29:53.660Z,111.57
2022-12-03T22:30:58.798Z,97.78
2022-12-03T22:32:03.631Z,95.35
2022-12-03T22:33:05.772Z,96.40
2022-12-03T22:34:10.606Z,87.18
2022-12-03T22:35:20.319Z,86.78
2022-12-03T22:36:23.035Z,94.38
2022-12-03T22:37:28.418Z,86.93
2022-12-03T22:38:34.933Z,85.72
2022-12-03T22:39:37.158Z,82.93